createdAt,value
2023-05-17T00:02:06.474Z,96843.44
2023-05-17T00:04:33.936Z,96855.63
2023-05-17T00:07:00.683Z,96850.50
2023-05-17T00:09:27.516Z,96853.56
2023-05-17T00:11:54.285Z,96844.34
2023-05-17T00:14:21.036Z,96864.22
2023-05-17T00:16:47.699Z,96846.81
2023-05-17T00:19:14.554Z,96873.03
2023-05-17T00:21:41.626Z,96900.13
2023-05-17T00:24:09.313Z,96900.75
2023-05-17T00:26:36.676Z,96898.03
2023-05-17T00:29:04.771Z,96930.63
2023-05-17T00:31:32.794Z,96924.34
2023-05-17T00:34:00.681Z,96929.31
2023-05-17T00:36:27.439Z,96939.22
2023-05-17T00:38:54.074Z,96932.25
2023-05-17T00:41:20.788Z,96948.13
2023-05-17T00:43:47.429Z,96941.34
2023-05-17T00:46:14.279Z,96949.09
2023-05-17T00:48:41.084Z,96957.50
2023-05-17T00:51:09.011Z,96961.16
2023-05-17T00:53:37.388Z,96959.34
2023-05-17T00:56:04.990Z,96969.56
2023-05-17T00:58:31.800Z,96961.66
2023-05-17T01:00:59.669Z,96970.28
2023-05-17T01:03:26.594Z,96963.72
2023-05-17T01:05:53.661Z,96969.41
2023-05-17T01:08:21.907Z,96988.34
2023-05-17T01:10:59.761Z,97013.75
2023-05-17T01:13:40.882Z,97006.19
2023-05-17T01:16:31.350Z,97027.84
2023-05-17T01:19:16.168Z,97041.78
2023-05-17T01:22:01.254Z,97056.66
2023-05-17T01:24:30.469Z,97067.00
2023-05-17T01:27:00.201Z,97068.56
2023-05-17T01:29:30.405Z,97093.28
2023-05-17T01:31:59.677Z,97105.84
2023-05-17T01:34:27.483Z,97134.16
2023-05-17T01:36:54.314Z,97150.06
2023-05-17T01:39:21.296Z,97152.28
2023-05-17T01:42:00.745Z,97174.69
2023-05-17T01:44:43.683Z,97197.94
2023-05-17T01:47:20.218Z,97206.84
2023-05-17T01:49:52.405Z,97220.91
2023-05-17T01:52:29.687Z,97226.16
2023-05-17T01:55:33.545Z,97234.69
2023-05-17T01:58:03.904Z,97238.94
2023-05-17T02:00:31.091Z,97242.00
2023-05-17T02:02:57.811Z,97253.41
2023-05-17T02:05:24.604Z,97271.19
2023-05-17T02:07:51.301Z,97262.72
2023-05-17T02:10:18.655Z,97265.19
2023-05-17T02:12:45.980Z,97269.59
2023-05-17T02:15:15.125Z,97280.84
2023-05-17T02:17:41.909Z,97272.38
2023-05-17T02:20:12.026Z,97271.75
2023-05-17T02:22:39.085Z,97265.91
2023-05-17T02:25:06.854Z,97265.47
2023-05-17T02:27:33.555Z,97264.78
2023-05-17T02:30:02.111Z,97271.03
2023-05-17T02:32:29.300Z,97272.81
2023-05-17T02:34:56.534Z,97271.69
2023-05-17T02:37:23.263Z,97283.94
2023-05-17T02:39:49.943Z,97275.41
2023-05-17T02:42:16.632Z,97270.31
2023-05-17T02:44:44.399Z,97283.78
2023-05-17T02:47:11.122Z,97278.59
2023-05-17T02:49:39.314Z,97270.81
2023-05-17T02:52:06.769Z,97267.09
2023-05-17T02:54:33.881Z,97263.75
2023-05-17T02:57:02.399Z,97264.84
2023-05-17T02:59:30.430Z,97271.34
2023-05-17T03:01:57.092Z,97267.72
2023-05-17T03:04:23.765Z,97266.44
2023-05-17T03:06:51.025Z,97272.28
2023-05-17T03:09:17.882Z,97271.97
2023-05-17T03:11:44.961Z,97283.03
2023-05-17T03:14:11.582Z,97282.56
2023-05-17T03:16:38.373Z,97280.03
2023-05-17T03:19:05.262Z,97282.25
2023-05-17T03:21:33.537Z,97281.78
2023-05-17T03:24:00.190Z,97281.16
2023-05-17T03:26:29.254Z,97303.25
2023-05-17T03:28:55.941Z,97307.09
2023-05-17T03:31:22.633Z,97296.78
2023-05-17T03:33:49.462Z,97297.56
2023-05-17T03:36:16.198Z,97300.13
2023-05-17T03:38:44.308Z,97290.31
2023-05-17T03:41:11.890Z,97293.47
2023-05-17T03:43:38.565Z,97307.22
2023-05-17T03:46:05.218Z,97333.13
2023-05-17T03:48:33.811Z,97329.16
2023-05-17T03:51:02.721Z,97336.63
2023-05-17T03:53:30.008Z,97317.16
2023-05-17T03:55:57.804Z,97313.22
2023-05-17T03:58:24.531Z,97317.97
2023-05-17T04:00:51.409Z,97290.19
2023-05-17T04:03:20.167Z,97277.66
2023-05-17T04:05:47.170Z,97281.94
2023-05-17T04:08:13.858Z,97274.19
2023-05-17T04:10:43.532Z,97269.44
2023-05-17T04:13:11.739Z,97264.41
2023-05-17T04:15:38.381Z,97262.19
2023-05-17T04:18:06.669Z,97269.44
2023-05-17T04:20:34.786Z,97264.41
2023-05-17T04:23:01.769Z,97256.97
2023-05-17T04:25:29.099Z,97235.44
2023-05-17T04:27:58.775Z,97234.22
2023-05-17T04:30:25.928Z,97233.91
2023-05-17T04:32:52.596Z,97235.13
2023-05-17T04:35:19.351Z,97237.22
2023-05-17T04:37:46.000Z,97244.16
2023-05-17T04:40:14.529Z,97242.84
2023-05-17T04:42:41.384Z,97239.69
2023-05-17T04:45:08.454Z,97246.97
2023-05-17T04:47:35.496Z,97245.19
2023-05-17T04:50:06.201Z,97248.53
2023-05-17T04:52:33.360Z,97248.53
2023-05-17T04:55:00.205Z,97245.16
2023-05-17T04:57:26.922Z,97253.72
2023-05-17T04:59:53.561Z,97256.75
2023-05-17T05:02:20.285Z,97249.72
2023-05-17T05:04:47.128Z,97260.47
2023-05-17T05:07:13.841Z,97267.28
2023-05-17T05:09:40.538Z,97265.66
2023-05-17T05:12:07.609Z,97285.66
2023-05-17T05:14:34.237Z,97276.59
2023-05-17T05:17:01.109Z,97277.84
2023-05-17T05:19:27.782Z,97294.94
2023-05-17T05:21:55.886Z,97295.72
2023-05-17T05:24:22.533Z,97303.47
2023-05-17T05:26:50.370Z,97309.50
2023-05-17T05:29:19.040Z,97315.00
2023-05-17T05:31:46.400Z,97324.19
2023-05-17T05:34:14.196Z,97330.34
2023-05-17T05:36:43.589Z,97323.69
2023-05-17T05:39:10.426Z,97333.19
2023-05-17T05:41:37.060Z,97346.16
2023-05-17T05:44:03.891Z,97345.84
2023-05-17T05:46:30.726Z,97355.16
2023-05-17T05:48:57.458Z,97356.44
2023-05-17T05:51:24.697Z,97360.97
2023-05-17T05:53:51.445Z,97370.34
2023-05-17T05:56:18.109Z,97372.25
2023-05-17T05:58:46.403Z,97378.41
2023-05-17T06:01:13.063Z,97397.25
2023-05-17T06:03:39.751Z,97389.47
2023-05-17T06:06:06.602Z,97382.50
2023-05-17T06:08:33.342Z,97393.13
2023-05-17T06:11:02.066Z,97398.84
2023-05-17T06:13:30.055Z,97388.84
2023-05-17T06:15:56.745Z,97405.31
2023-05-17T06:18:24.861Z,97382.69
2023-05-17T06:20:52.791Z,97375.56
2023-05-17T06:23:19.534Z,97399.13
2023-05-17T06:25:46.365Z,97379.50
2023-05-17T06:28:13.002Z,97384.25
2023-05-17T06:30:39.632Z,97378.72
2023-05-17T06:33:06.507Z,97370.50
2023-05-17T06:35:43.786Z,97369.06
2023-05-17T06:38:19.891Z,97372.72
2023-05-17T06:40:46.602Z,97364.13
2023-05-17T06:43:14.640Z,97367.28
2023-05-17T06:45:41.291Z,97370.34
2023-05-17T06:48:09.498Z,97368.22
2023-05-17T06:50:36.410Z,97373.63
2023-05-17T06:53:05.605Z,97385.00
2023-05-17T06:55:32.778Z,97372.59
2023-05-17T06:58:01.540Z,97384.31
2023-05-17T07:00:30.431Z,97389.03
2023-05-17T07:02:57.588Z,97387.69
2023-05-17T07:05:25.704Z,97404.63
2023-05-17T07:07:53.803Z,97414.06
2023-05-17T07:10:20.657Z,97407.47
2023-05-17T07:12:48.334Z,97416.28
2023-05-17T07:15:15.137Z,97438.72
2023-05-17T07:17:41.861Z,97450.91
2023-05-17T07:20:09.488Z,97494.81
2023-05-17T07:22:37.450Z,97509.03
2023-05-17T07:25:05.411Z,97531.03
2023-05-17T07:27:32.182Z,97558.16
2023-05-17T07:29:58.940Z,97566.34
2023-05-17T07:32:25.714Z,97599.78
2023-05-17T07:34:52.423Z,97567.91
2023-05-17T07:37:19.138Z,97570.56
2023-05-17T07:39:45.862Z,97583.88
2023-05-17T07:42:13.328Z,97591.00
2023-05-17T07:44:39.949Z,97606.38
2023-05-17T07:47:07.775Z,97633.00
2023-05-17T07:49:35.822Z,97654.72
2023-05-17T07:52:03.192Z,97650.19
2023-05-17T07:54:32.329Z,97663.84
2023-05-17T07:56:59.779Z,97671.88
2023-05-17T07:59:27.773Z,97679.94
2023-05-17T08:01:54.621Z,97699.16
2023-05-17T08:04:21.376Z,97707.69
2023-05-17T08:06:48.603Z,97729.81
2023-05-17T08:09:16.613Z,97706.00
2023-05-17T08:11:47.775Z,97711.00
2023-05-17T08:14:18.364Z,97725.25
2023-05-17T08:16:46.745Z,97807.63
2023-05-17T08:19:15.181Z,97823.47
2023-05-17T08:21:42.990Z,97821.34
2023-05-17T08:24:10.211Z,97905.63
2023-05-17T08:26:37.121Z,97939.75
2023-05-17T08:29:06.119Z,97959.72
2023-05-17T08:31:34.687Z,98033.25
2023-05-17T08:34:02.758Z,98029.41
2023-05-17T08:36:29.481Z,98052.59
2023-05-17T08:38:56.118Z,98067.19
2023-05-17T08:41:22.990Z,98073.19
2023-05-17T08:43:51.035Z,98081.19
2023-05-17T08:46:21.789Z,98073.84
2023-05-17T08:48:52.125Z,98091.47
2023-05-17T08:51:23.370Z,98132.91
2023-05-17T08:53:50.790Z,98145.00
2023-05-17T08:56:19.604Z,98156.41
2023-05-17T08:58:56.632Z,98180.56
2023-05-17T09:01:26.537Z,98192.94
2023-05-17T09:03:54.549Z,98187.84
2023-05-17T09:06:22.883Z,98173.28
2023-05-17T09:08:55.086Z,98219.00
2023-05-17T09:11:30.119Z,98210.09
2023-05-17T09:14:05.533Z,98214.75
2023-05-17T09:16:35.128Z,98205.69
2023-05-17T09:19:05.485Z,98231.91
2023-05-17T09:21:32.826Z,98268.78
2023-05-17T09:24:07.303Z,98275.44
2023-05-17T09:26:43.668Z,98261.63
2023-05-17T09:29:12.561Z,98280.22
2023-05-17T09:31:42.547Z,98264.63
2023-05-17T09:34:09.636Z,98291.66
2023-05-17T09:36:37.893Z,98301.53
2023-05-17T09:39:06.855Z,98303.25
2023-05-17T09:41:42.408Z,98307.19
2023-05-17T09:44:11.354Z,98309.53
2023-05-17T09:46:48.078Z,98321.88
2023-05-17T09:49:16.912Z,98338.50
2023-05-17T09:51:47.226Z,98344.34
2023-05-17T09:54:14.184Z,98380.66
2023-05-17T09:56:42.697Z,98373.66
2023-05-17T09:59:16.324Z,98372.34
2023-05-17T10:01:47.704Z,98396.44
2023-05-17T10:04:20.512Z,98399.94
2023-05-17T10:06:52.235Z,98395.13
2023-05-17T10:09:22.754Z,98405.31
2023-05-17T10:11:53.475Z,98411.03
2023-05-17T10:14:32.004Z,98396.66
2023-05-17T10:17:00.288Z,98424.06
2023-05-17T10:19:27.439Z,98408.50
2023-05-17T10:21:56.629Z,98409.34
2023-05-17T10:24:25.264Z,98413.97
2023-05-17T10:26:52.519Z,98416.66
2023-05-17T10:29:22.445Z,98404.47
2023-05-17T10:31:53.716Z,98424.09
2023-05-17T10:34:20.723Z,98420.72
2023-05-17T10:36:50.999Z,98422.59
2023-05-17T10:39:18.830Z,98431.19
2023-05-17T10:41:48.681Z,98452.13
2023-05-17T10:44:17.744Z,98438.50
2023-05-17T10:46:58.340Z,98459.22
2023-05-17T10:49:33.796Z,98443.28
2023-05-17T10:52:23.821Z,98444.81
2023-05-17T10:54:51.026Z,98435.53
2023-05-17T10:57:21.557Z,98440.41
2023-05-17T10:59:59.447Z,98468.81
2023-05-17T11:02:27.770Z,98474.31
2023-05-17T11:04:56.656Z,98464.47
2023-05-17T11:07:32.682Z,98460.03
2023-05-17T11:10:06.168Z,98456.09
2023-05-17T11:12:39.439Z,98472.19
2023-05-17T11:15:18.857Z,98442.88
2023-05-17T11:17:51.150Z,98449.88
2023-05-17T11:20:25.442Z,98474.50
2023-05-17T11:23:01.087Z,98477.41
2023-05-17T11:25:32.655Z,98498.88
2023-05-17T11:27:59.862Z,98517.41
2023-05-17T11:30:31.286Z,98525.91
2023-05-17T11:33:00.724Z,98540.50
2023-05-17T11:35:38.858Z,98549.25
2023-05-17T11:38:24.127Z,98582.81
2023-05-17T11:40:55.996Z,98599.66
2023-05-17T11:43:24.253Z,98619.03
2023-05-17T11:45:54.048Z,98637.03
2023-05-17T11:48:26.171Z,98637.97
2023-05-17T11:50:55.373Z,98630.03
2023-05-17T11:53:23.168Z,98645.41
2023-05-17T11:55:51.880Z,98658.69
2023-05-17T11:58:28.064Z,98650.06
2023-05-17T12:01:00.563Z,98646.84
2023-05-17T12:03:29.275Z,98660.44
2023-05-17T12:06:06.366Z,98676.03
2023-05-17T12:08:34.986Z,98677.75
2023-05-17T12:11:02.694Z,98687.41
2023-05-17T12:13:30.385Z,98671.84
2023-05-17T12:16:02.204Z,98709.72
2023-05-17T12:18:40.746Z,98720.44
2023-05-17T12:21:09.060Z,98715.72
2023-05-17T12:23:36.862Z,98722.53
2023-05-17T12:26:09.596Z,98723.88
2023-05-17T12:28:38.253Z,98720.38
2023-05-17T12:31:08.495Z,98723.69
2023-05-17T12:33:40.787Z,98736.78
2023-05-17T12:36:09.159Z,98717.53
2023-05-17T12:38:39.475Z,98731.97
2023-05-17T12:41:08.469Z,98740.97
2023-05-17T12:43:37.301Z,98731.03
2023-05-17T12:46:15.135Z,98754.63
2023-05-17T12:48:43.508Z,98738.34
2023-05-17T12:51:15.173Z,98741.78
2023-05-17T12:53:57.222Z,98759.28
2023-05-17T12:56:28.425Z,98759.75
2023-05-17T12:59:18.729Z,98754.09
2023-05-17T13:01:47.367Z,98752.63
2023-05-17T13:04:16.250Z,98769.56
2023-05-17T13:07:00.301Z,98761.28
2023-05-17T13:09:32.475Z,98759.56
2023-05-17T13:12:05.956Z,98760.84
2023-05-17T13:14:41.146Z,98771.72
2023-05-17T13:17:16.798Z,98754.81
2023-05-17T13:19:43.565Z,98764.69
2023-05-17T13:22:10.586Z,98758.44
2023-05-17T13:24:41.113Z,98761.28
2023-05-17T13:27:10.230Z,98765.28
2023-05-17T13:29:40.678Z,98754.34
2023-05-17T13:32:08.429Z,98761.50
2023-05-17T13:34:36.110Z,98774.34
2023-05-17T13:37:03.388Z,98787.88
2023-05-17T13:39:30.084Z,98806.72
2023-05-17T13:41:57.130Z,98811.22
2023-05-17T13:44:25.078Z,98790.53
2023-05-17T13:46:51.802Z,98789.78
2023-05-17T13:49:18.977Z,98800.63
2023-05-17T13:51:46.565Z,98785.72
2023-05-17T13:54:13.237Z,98777.09
2023-05-17T13:56:41.042Z,98766.03
2023-05-17T13:59:07.687Z,98769.53
2023-05-17T14:01:35.636Z,98782.22
2023-05-17T14:04:02.423Z,98802.22
2023-05-17T14:06:29.355Z,98844.28
2023-05-17T14:08:57.240Z,98821.94
2023-05-17T14:11:23.997Z,98794.53
2023-05-17T14:13:50.689Z,98796.00
2023-05-17T14:16:18.812Z,98796.00
2023-05-17T14:18:47.790Z,98800.06
2023-05-17T14:21:15.646Z,98810.13
2023-05-17T14:23:42.273Z,98792.31
2023-05-17T14:26:10.632Z,98797.44
2023-05-17T14:28:39.179Z,98778.22
2023-05-17T14:31:08.261Z,98706.97
2023-05-17T14:33:35.210Z,98715.94
2023-05-17T14:36:05.091Z,98693.28
2023-05-17T14:38:31.973Z,98717.53
2023-05-17T14:41:01.001Z,98744.81
2023-05-17T14:43:28.221Z,98747.66
2023-05-17T14:45:54.941Z,98766.31
2023-05-17T14:48:21.816Z,98791.34
2023-05-17T14:50:48.573Z,98806.84
2023-05-17T14:53:16.598Z,98802.19
2023-05-17T14:55:44.890Z,98805.34
2023-05-17T14:58:15.969Z,98826.53
2023-05-17T15:00:48.353Z,98840.31
2023-05-17T15:03:19.462Z,98833.88
2023-05-17T15:05:53.957Z,98837.66
2023-05-17T15:08:21.790Z,98828.22
2023-05-17T15:10:53.122Z,98824.63
2023-05-17T15:13:19.959Z,98847.34
2023-05-17T15:15:46.923Z,98858.19
2023-05-17T15:18:16.511Z,98880.66
2023-05-17T15:20:43.525Z,98892.72
2023-05-17T15:23:11.387Z,98901.75
2023-05-17T15:25:38.137Z,98915.66
2023-05-17T15:28:06.441Z,98913.09
2023-05-17T15:30:33.171Z,98926.31
2023-05-17T15:33:01.396Z,98942.31
2023-05-17T15:35:29.042Z,98965.66
2023-05-17T15:37:58.616Z,98967.31
2023-05-17T15:40:25.473Z,98980.38
2023-05-17T15:42:52.676Z,98987.41
2023-05-17T15:45:22.742Z,98985.81
2023-05-17T15:47:49.600Z,98996.34
2023-05-17T15:50:18.179Z,98999.53
2023-05-17T15:52:47.353Z,98999.78
2023-05-17T15:55:14.149Z,99012.72
2023-05-17T15:57:42.694Z,99025.22
2023-05-17T16:00:10.357Z,99031.69
2023-05-17T16:02:37.091Z,99020.50
2023-05-17T16:05:04.466Z,99029.75
2023-05-17T16:07:31.376Z,99036.06
2023-05-17T16:09:58.116Z,99043.22
2023-05-17T16:12:24.874Z,99046.97
2023-05-17T16:14:52.055Z,99054.34
2023-05-17T16:17:18.950Z,99060.63
2023-05-17T16:19:45.804Z,99057.19
2023-05-17T16:22:13.289Z,99070.22
2023-05-17T16:24:41.934Z,99074.09
2023-05-17T16:27:10.058Z,99073.03
2023-05-17T16:29:40.032Z,99081.41
2023-05-17T16:32:09.526Z,99085.38
2023-05-17T16:34:36.726Z,99097.50
2023-05-17T16:37:05.614Z,99091.28
2023-05-17T16:39:34.007Z,99105.78
2023-05-17T16:42:00.799Z,99116.59
2023-05-17T16:44:27.508Z,99113.66
2023-05-17T16:46:54.287Z,99122.28
2023-05-17T16:49:20.982Z,99134.81
2023-05-17T16:51:49.991Z,99130.50
2023-05-17T16:54:17.144Z,99137.88
2023-05-17T16:56:45.265Z,99136.31
2023-05-17T16:59:12.289Z,99148.47
2023-05-17T17:01:39.288Z,99154.88
2023-05-17T17:04:06.277Z,99159.50
2023-05-17T17:06:34.028Z,99161.09
2023-05-17T17:09:01.639Z,99168.94
2023-05-17T17:11:28.376Z,99167.50
2023-05-17T17:13:55.162Z,99181.56
2023-05-17T17:16:21.886Z,99180.44
2023-05-17T17:18:49.805Z,99180.94
2023-05-17T17:21:18.794Z,99183.16
2023-05-17T17:23:46.091Z,99188.44
2023-05-17T17:26:14.033Z,99191.97
2023-05-17T17:28:40.947Z,99195.47
2023-05-17T17:31:09.463Z,99206.16
2023-05-17T17:33:36.556Z,99212.56
2023-05-17T17:36:03.757Z,99224.06
2023-05-17T17:38:32.144Z,99211.22
2023-05-17T17:40:58.778Z,99228.06
2023-05-17T17:43:26.766Z,99232.66
2023-05-17T17:45:53.461Z,99245.13
2023-05-17T17:48:20.215Z,99250.84
2023-05-17T17:50:46.853Z,99245.19
2023-05-17T17:53:14.046Z,99249.03
2023-05-17T17:55:40.942Z,99258.16
2023-05-17T17:58:08.840Z,99266.72
2023-05-17T18:00:35.605Z,99269.94
2023-05-17T18:03:02.467Z,99277.69
2023-05-17T18:05:29.211Z,99285.72
2023-05-17T18:07:55.886Z,99286.03
2023-05-17T18:10:22.516Z,99298.59
2023-05-17T18:12:51.689Z,99303.25
2023-05-17T18:15:18.908Z,99300.13
2023-05-17T18:17:46.037Z,99302.66
2023-05-17T18:20:12.757Z,99308.56
2023-05-17T18:22:39.420Z,99310.25
2023-05-17T18:25:07.708Z,99311.91
2023-05-17T18:27:35.207Z,99320.41
2023-05-17T18:30:03.273Z,99330.66
2023-05-17T18:32:30.124Z,99349.47
2023-05-17T18:34:56.906Z,99331.69
2023-05-17T18:37:24.732Z,99332.75
2023-05-17T18:39:51.486Z,99335.34
2023-05-17T18:42:18.489Z,99338.91
2023-05-17T18:44:45.161Z,99345.56
2023-05-17T18:47:12.093Z,99344.41
2023-05-17T18:49:41.937Z,99355.00
2023-05-17T18:52:09.982Z,99365.19
2023-05-17T18:54:38.514Z,99365.28
2023-05-17T18:57:05.529Z,99361.69
2023-05-17T18:59:33.169Z,99377.59
2023-05-17T19:02:00.590Z,99389.44
2023-05-17T19:04:28.599Z,99381.00
2023-05-17T19:06:57.634Z,99387.84
2023-05-17T19:09:25.622Z,99391.63
2023-05-17T19:11:53.512Z,99387.44
2023-05-17T19:14:20.155Z,99388.25
2023-05-17T19:16:48.244Z,99390.81
2023-05-17T19:19:15.141Z,99402.09
2023-05-17T19:21:41.944Z,99397.47
2023-05-17T19:24:08.643Z,99399.88
2023-05-17T19:26:35.309Z,99414.34
2023-05-17T19:29:03.008Z,99418.34
2023-05-17T19:31:29.714Z,99419.75
2023-05-17T19:33:58.297Z,99439.03
2023-05-17T19:36:25.874Z,99431.91
2023-05-17T19:38:52.678Z,99445.66
2023-05-17T19:41:19.597Z,99468.72
2023-05-17T19:43:46.241Z,99461.69
2023-05-17T19:46:12.948Z,99468.13
2023-05-17T19:48:39.982Z,99476.69
2023-05-17T19:51:06.765Z,99478.34
2023-05-17T19:53:50.686Z,99485.63
2023-05-17T19:56:19.256Z,99489.63
2023-05-17T19:58:46.117Z,99499.75
2023-05-17T20:01:12.846Z,99500.16
2023-05-17T20:03:40.635Z,99527.97
2023-05-17T20:06:09.571Z,99512.69
2023-05-17T20:08:36.385Z,99509.03
2023-05-17T20:11:04.533Z,99518.44
2023-05-17T20:13:31.519Z,99518.97
2023-05-17T20:15:58.223Z,99519.81
2023-05-17T20:18:27.660Z,99531.66
2023-05-17T20:20:56.028Z,99534.22
2023-05-17T20:23:23.122Z,99541.16
2023-05-17T20:25:50.951Z,99536.53
2023-05-17T20:28:17.772Z,99542.19
2023-05-17T20:30:45.607Z,99541.56
2023-05-17T20:33:12.362Z,99553.91
2023-05-17T20:35:39.078Z,99554.09
2023-05-17T20:38:07.013Z,99557.72
2023-05-17T20:40:34.972Z,99571.41
2023-05-17T20:43:01.625Z,99556.72
2023-05-17T20:45:30.908Z,99565.16
2023-05-17T20:47:57.959Z,99561.84
2023-05-17T20:50:24.815Z,99565.28
2023-05-17T20:52:52.394Z,99579.31
2023-05-17T20:55:19.172Z,99571.72
2023-05-17T20:57:46.912Z,99573.72
2023-05-17T21:00:16.864Z,99586.41
2023-05-17T21:02:43.723Z,99572.44
2023-05-17T21:05:10.914Z,99576.53
2023-05-17T21:07:41.747Z,99580.00
2023-05-17T21:10:09.533Z,99587.06
2023-05-17T21:12:36.344Z,99588.78
2023-05-17T21:17:50.441Z,99570.69
2023-05-17T21:20:17.739Z,99580.13
2023-05-17T21:22:45.520Z,99581.66
2023-05-17T21:25:12.226Z,99577.47
2023-05-17T21:27:40.363Z,99586.13
2023-05-17T21:30:07.740Z,99581.78
2023-05-17T21:32:35.943Z,99595.97
2023-05-17T21:35:02.850Z,99582.47
2023-05-17T21:37:29.615Z,99589.72
2023-05-17T21:39:56.365Z,99599.28
2023-05-17T21:42:23.032Z,99600.13
2023-05-17T21:44:49.842Z,99605.69
2023-05-17T21:47:17.783Z,99601.47
2023-05-17T21:49:44.545Z,99606.03
2023-05-17T21:52:11.578Z,99618.72
2023-05-17T21:54:38.368Z,99619.91
2023-05-17T21:57:05.197Z,99614.78
2023-05-17T21:59:33.117Z,99622.81
2023-05-17T22:02:00.024Z,99617.50
2023-05-17T22:04:27.311Z,99623.75
2023-05-17T22:06:57.005Z,99631.78
2023-05-17T22:09:23.721Z,99625.38
2023-05-17T22:11:51.718Z,99640.50
2023-05-17T22:14:19.195Z,99647.44
2023-05-17T22:16:47.043Z,99652.38
2023-05-17T22:19:13.925Z,99648.09
2023-05-17T22:21:40.772Z,99647.78
2023-05-17T22:24:07.707Z,99659.44
2023-05-17T22:26:34.339Z,99662.94
2023-05-17T22:29:01.355Z,99669.66
2023-05-17T22:31:28.157Z,99678.88
2023-05-17T22:33:55.254Z,99667.28
2023-05-17T22:36:24.877Z,99675.09
2023-05-17T22:38:52.862Z,99676.16
2023-05-17T22:41:19.527Z,99686.94
2023-05-17T22:43:47.456Z,99680.47
2023-05-17T22:46:15.597Z,99690.75
2023-05-17T22:48:42.285Z,99697.75
2023-05-17T22:51:08.981Z,99693.44
2023-05-17T22:53:36.146Z,99684.81
2023-05-17T22:56:03.348Z,99692.63
2023-05-17T22:58:30.002Z,99694.78
2023-05-17T23:00:57.954Z,99692.34
2023-05-17T23:03:24.756Z,99698.00
2023-05-17T23:06:02.062Z,99686.44
2023-05-17T23:08:32.573Z,99695.56
2023-05-17T23:10:59.281Z,99694.50
2023-05-17T23:13:27.402Z,99710.34
2023-05-17T23:15:54.060Z,99706.31
2023-05-17T23:18:21.158Z,99713.88
2023-05-17T23:20:48.885Z,99714.94
2023-05-17T23:23:16.136Z,99713.06
2023-05-17T23:25:44.795Z,99712.50
2023-05-17T23:28:11.658Z,99710.06
2023-05-17T23:30:41.133Z,99711.16
2023-05-17T23:33:08.244Z,99724.03
2023-05-17T23:35:36.051Z,99734.81
2023-05-17T23:38:04.176Z,99732.66
2023-05-17T23:40:32.448Z,99740.13
2023-05-17T23:42:59.115Z,99741.28
2023-05-17T23:45:27.020Z,99740.16
2023-05-17T23:47:54.040Z,99741.72
2023-05-17T23:50:22.002Z,99742.34
2023-05-17T23:52:49.051Z,99743.91
2023-05-17T23:55:17.566Z,99743.91
2023-05-17T23:57:44.270Z,99750.63
